Penrhyndeudraeth, United Kingdom
Current Conditions -  °F | °C
As of 1:50 AM on Saturday 20 Dec 2014 (Local Time) from EGOV Reporting Station
Broken Clouds Broken Clouds  
Wind Chill: 38°   Ceiling: 4100
Heat Index: 46°   Visibility: 6mi
Dew Point: 39°   Wind: 24mph
Humidity: 76%   Direction: 260°W
Pressure: 30.15"   Gusts: NA
Location:  52.93°N, 4.07°W
Report Text: EGOV 200150Z AUTO 26021KT 9999 FEW024/// SCT033/// BKN041/// 08/04 Q1021 RERA
Loading
Personal Weather Stations






























Interactive Weather Map New forecast layout! Learn more

10-Day Weather Forecast

Advertisements
Track Severe Weather on mobile